This is the latest recevied weather packets stored in our database for station/object SQ3PLU-13. If no packets are shown the sender has not sent any weather packets the latest 10 day(s).
| Time | Temp. | Humidity | Pressure | Rain* | Wind** | Luminosity | Snow |
|---|---|---|---|---|---|---|---|
| 1778328000 | 15.56° C | 65% | 1012 hPa | - | - | - | - |
| 1778327700 | 15° C | 65% | 1012 hPa | - | - | - | - |
| 1778327400 | 16.11° C | 59% | 1011 hPa | - | - | - | - |
| 1778327101 | 16.11° C | 63% | 1011 hPa | - | - | - | - |
| 1778326801 | 15.56° C | 64% | 1012 hPa | - | - | - | - |
| 1778326501 | 15.56° C | 61% | 1011 hPa | - | - | - | - |
| 1778326201 | 15.56° C | 62% | 1012 hPa | - | - | - | - |
| 1778325901 | 15.56° C | 62% | 1011 hPa | - | - | - | - |
| 1778325601 | 16.11° C | 63% | 1011 hPa | - | - | - | - |
| 1778325302 | 15.56° C | 64% | 1012 hPa | - | - | - | - |
| 1778325002 | 15.56° C | 62% | 1012 hPa | - | - | - | - |
| 1778324701 | 15.56° C | 60% | 1012 hPa | - | - | - | - |
| 1778324401 | 15.56° C | 60% | 1012 hPa | - | - | - | - |
| 1778324101 | 15.56° C | 62% | 1012 hPa | - | - | - | - |
| 1778323801 | 15° C | 66% | 1012 hPa | - | - | - | - |
| 1778323502 | 15.56° C | 65% | 1012 hPa | - | - | - | - |
| 1778323202 | 15.56° C | 65% | 1012 hPa | - | - | - | - |
| 1778322902 | 15.56° C | 64% | 1012 hPa | - | - | - | - |
| 1778322602 | 16.67° C | 62% | 1012 hPa | - | - | - | - |
| 1778322302 | 16.11° C | 64% | 1012 hPa | - | - | - | - |
| 1778322003 | 15.56° C | 65% | 1012 hPa | - | - | - | - |
| 1778321703 | 15.56° C | 68% | 1012 hPa | - | - | - | - |
| 1778321402 | 15° C | 70% | 1012 hPa | - | - | - | - |
| 1778321102 | 15° C | 69% | 1012 hPa | - | - | - | - |
| 1778320802 | 15.56° C | 66% | 1012 hPa | - | - | - | - |
* Rain since midnight (hover to see other rain measurements)
** Current wind speed in m/s (hover to see current wind gust speed)